Time;durP1;ratioP1;P1;durP2;ratioP2;P2;SDS_P1;SDS_P2;PMS_P1;PMS_P2;Temp;Humidity;BMP_temperature;BMP_pressure;BME280_temperature;BME280_humidity;BME280_pressure;Samples;Min_cycle;Max_cycle;Signal;HPM_P1;HPM_P2
2021/09/19 00:01:58;;;;;;;3.70;2.53;;;;;;;12.18;80.86;101649.91;5069408;28;20465;-72
2021/09/19 00:04:24;;;;;;;5.18;2.33;;;;;;;12.16;80.54;101645.72;5068899;28;20112;-72
2021/09/19 00:06:49;;;;;;;5.27;2.83;;;;;;;12.13;81.54;101649.53;5068245;28;20036;-72
2021/09/19 00:09:15;;;;;;;4.80;2.50;;;;;;;12.12;81.38;101655.03;5068106;28;20170;-72
2021/09/19 00:11:40;;;;;;;5.73;2.93;;;;;;;12.11;81.71;101654.19;5068128;28;20282;-72
2021/09/19 00:14:06;;;;;;;4.85;2.83;;;;;;;12.00;82.05;101647.19;5068195;28;20127;-72
2021/09/19 00:16:32;;;;;;;3.83;2.42;;;;;;;12.00;80.28;101631.16;5068838;28;20078;-72
2021/09/19 00:18:57;;;;;;;4.27;2.77;;;;;;;12.12;80.45;101623.75;5067764;28;20021;-72
2021/09/19 00:21:22;;;;;;;4.53;2.10;;;;;;;12.11;80.40;101626.59;5069151;28;20040;-72
2021/09/19 00:23:48;;;;;;;4.53;2.87;;;;;;;12.09;80.57;101624.06;5069038;28;20040;-72
2021/09/19 00:26:13;;;;;;;8.40;2.77;;;;;;;12.15;80.78;101623.47;5051266;28;20047;-72
2021/09/19 00:28:39;;;;;;;3.90;2.50;;;;;;;12.09;80.24;101617.88;5068601;28;20294;-72
2021/09/19 00:31:04;;;;;;;6.00;2.97;;;;;;;12.05;81.05;101628.03;5051316;28;20033;-72
2021/09/19 00:33:30;;;;;;;5.60;3.08;;;;;;;11.96;81.23;101623.56;5068918;28;20433;-72
2021/09/19 00:35:55;;;;;;;6.23;3.03;;;;;;;11.94;81.75;101622.88;5067866;28;20096;-72
2021/09/19 00:38:21;;;;;;;4.37;2.33;;;;;;;11.84;81.98;101631.75;5068766;28;20458;-72
2021/09/19 00:40:46;;;;;;;5.87;2.73;;;;;;;11.84;81.83;101630.94;5067906;28;20029;-72
2021/09/19 00:43:11;;;;;;;7.83;2.80;;;;;;;11.78;82.05;101624.34;5068769;28;20068;-72
2021/09/19 00:45:37;;;;;;;6.00;2.43;;;;;;;11.78;81.79;101621.69;5068528;28;20078;-72
2021/09/19 00:48:03;;;;;;;7.77;3.00;;;;;;;11.75;81.37;101616.63;5067598;28;20040;-72
2021/09/19 00:50:28;;;;;;;9.02;2.95;;;;;;;11.80;80.56;101606.31;5068652;28;20429;-72
2021/09/19 00:52:54;;;;;;;5.85;2.35;;;;;;;11.75;80.79;101600.59;5068675;28;20028;-72
2021/09/19 00:55:20;;;;;;;5.30;2.53;;;;;;;11.75;80.81;101607.75;5068499;28;20444;-72
2021/09/19 00:57:52;;;;;;;9.80;3.83;;;;;;;11.77;81.54;101611.94;5067605;28;20085;-71
2021/09/19 01:00:20;;;;;;;4.00;2.47;;;;;;;11.73;81.60;101605.25;5067358;28;20040;-72
2021/09/19 01:02:46;;;;;;;6.03;2.75;;;;;;;11.78;81.39;101600.28;5068692;28;20028;-72
2021/09/19 01:05:13;;;;;;;6.75;2.97;;;;;;;11.75;81.27;101611.28;5067677;28;20037;-72
2021/09/19 01:07:40;;;;;;;4.15;2.85;;;;;;;11.81;80.93;101602.63;5050886;28;20036;-72
2021/09/19 01:10:06;;;;;;;5.53;2.92;;;;;;;11.81;81.08;101605.31;5067245;28;20021;-72
2021/09/19 01:12:32;;;;;;;4.90;3.30;;;;;;;11.81;80.69;101602.63;5068024;28;20374;-72
2021/09/19 01:14:59;;;;;;;4.32;2.42;;;;;;;11.90;80.12;101592.91;5067801;28;20037;-72
2021/09/19 01:17:25;;;;;;;4.78;2.35;;;;;;;11.87;79.84;101593.22;5068127;28;20028;-72
2021/09/19 01:19:55;;;;;;;6.72;3.47;;;;;;;11.89;80.29;101585.84;5066761;28;20036;-72
2021/09/19 01:22:30;;;;;;;4.25;2.47;;;;;;;11.87;80.12;101592.31;5067170;28;20059;-72
2021/09/19 01:24:55;;;;;;;3.75;2.88;;;;;;;11.95;79.93;101595.97;5067698;28;20034;-72
2021/09/19 01:27:21;;;;;;;4.23;2.50;;;;;;;11.93;79.87;101603.31;5068498;28;20097;-72
2021/09/19 01:29:46;;;;;;;6.03;2.83;;;;;;;11.93;80.24;101603.31;5068372;28;20064;-72
2021/09/19 01:32:16;;;;;;;5.73;2.97;;;;;;;11.89;80.33;101606.44;5072602;28;20044;-72
2021/09/19 01:34:42;;;;;;;4.05;2.55;;;;;;;11.89;81.39;101617.13;5072044;28;20111;-72
2021/09/19 01:37:07;;;;;;;4.13;2.70;;;;;;;11.84;82.56;101622.91;5072533;28;20643;-72
2021/09/19 01:39:33;;;;;;;6.40;3.40;;;;;;;11.83;82.98;101626.56;5071866;28;20051;-72
2021/09/19 01:41:59;;;;;;;8.10;3.67;;;;;;;11.83;83.16;101624.75;5071527;28;20274;-72
2021/09/19 01:44:24;;;;;;;6.93;2.78;;;;;;;11.79;83.90;101628.69;5072023;28;20078;-72
2021/09/19 01:46:50;;;;;;;6.93;3.50;;;;;;;11.78;83.17;101624.34;5054613;28;20072;-72
2021/09/19 01:49:15;;;;;;;5.03;2.30;;;;;;;11.77;82.96;101624.50;5070972;28;20046;-72
2021/09/19 01:51:42;;;;;;;3.90;2.40;;;;;;;11.77;82.92;101624.50;5071113;28;20021;-72
2021/09/19 01:54:08;;;;;;;5.30;2.85;;;;;;;11.70;83.32;101624.25;5072035;28;20140;-72
2021/09/19 01:56:33;;;;;;;7.83;3.10;;;;;;;11.66;83.47;101628.22;5070954;28;20115;-72
2021/09/19 01:58:59;;;;;;;4.97;2.97;;;;;;;11.65;83.65;101626.53;5071766;28;20036;-72
2021/09/19 02:01:24;;;;;;;6.53;2.97;;;;;;;11.66;83.92;101630.91;5071855;28;20036;-72
2021/09/19 02:03:51;;;;;;;4.80;2.93;;;;;;;11.63;83.64;101628.50;5070939;28;20068;-72
2021/09/19 02:06:17;;;;;;;6.82;3.25;;;;;;;11.62;83.83;101626.81;5069862;28;20036;-72
2021/09/19 02:08:42;;;;;;;4.67;2.93;;;;;;;11.62;83.91;101621.47;5070671;28;20037;-72
2021/09/19 02:11:10;;;;;;;5.35;3.47;;;;;;;11.59;84.20;101617.25;5071632;28;20040;-72
2021/09/19 02:13:36;;;;;;;5.82;3.05;;;;;;;11.58;84.23;101620.91;5070857;28;20033;-72
2021/09/19 02:16:05;;;;;;;6.05;3.20;;;;;;;11.54;84.60;101629.38;5070488;28;20032;-72
2021/09/19 02:18:31;;;;;;;5.50;3.17;;;;;;;11.58;84.63;101628.94;5071397;28;20085;-72
2021/09/19 02:20:58;;;;;;;10.43;3.25;;;;;;;11.61;84.82;101622.44;5071402;28;20125;-72
2021/09/19 02:23:23;;;;;;;5.80;3.65;;;;;;;11.55;85.21;101615.88;5070612;28;20215;-72
2021/09/19 02:25:49;;;;;;;4.63;3.20;;;;;;;11.53;85.51;101623.19;5053685;28;20660;-72
2021/09/19 02:28:16;;;;;;;6.82;3.53;;;;;;;11.51;85.55;101619.81;5071460;28;20043;-72
2021/09/19 02:30:42;;;;;;;7.90;3.97;;;;;;;11.46;85.65;101613.25;5070854;28;20369;-72
2021/09/19 02:33:08;;;;;;;7.53;3.72;;;;;;;11.47;85.79;101620.25;5071363;28;20036;-72
2021/09/19 02:35:33;;;;;;;4.82;2.92;;;;;;;11.44;86.29;101623.25;5069990;28;20040;-72
2021/09/19 02:37:59;;;;;;;9.07;3.17;;;;;;;11.44;86.57;101625.91;5071083;28;20623;-72
2021/09/19 02:40:26;;;;;;;9.83;3.70;;;;;;;11.39;86.98;101616.50;5070967;28;20032;-72
2021/09/19 02:42:53;;;;;;;6.45;3.00;;;;;;;11.40;86.84;101618.19;5069910;28;20279;-72
2021/09/19 02:45:20;;;;;;;5.15;2.80;;;;;;;11.39;86.89;101621.00;5070005;28;20040;-72
2021/09/19 02:47:45;;;;;;;4.43;3.50;;;;;;;11.36;87.60;101622.13;5069785;28;20075;-72
2021/09/19 02:50:14;;;;;;;6.87;2.90;;;;;;;11.40;87.43;101623.53;5069682;28;20060;-72
2021/09/19 02:52:40;;;;;;;6.30;3.05;;;;;;;11.40;87.34;101622.69;5069920;28;20039;-72
2021/09/19 02:55:07;;;;;;;4.93;2.88;;;;;;;11.37;87.82;101629.16;5069856;28;20028;-72
2021/09/19 02:57:32;;;;;;;4.00;3.17;;;;;;;11.35;88.18;101631.13;5069683;28;20339;-71
2021/09/19 02:59:58;;;;;;;8.88;3.38;;;;;;;11.23;87.56;101620.78;5070600;28;20047;-72
2021/09/19 03:02:23;;;;;;;6.97;3.10;;;;;;;11.35;88.07;101636.47;5070563;28;20051;-71
2021/09/19 03:04:48;;;;;;;6.07;3.60;;;;;;;11.29;88.23;101629.06;5069460;28;20119;-72
2021/09/19 03:07:14;;;;;;;5.83;2.90;;;;;;;11.32;88.57;101628.75;5070405;28;20037;-72
2021/09/19 03:09:39;;;;;;;7.40;3.10;;;;;;;11.34;88.47;101629.47;5070341;28;20131;-72
2021/09/19 03:12:05;;;;;;;6.20;2.97;;;;;;;11.38;88.13;101611.31;5070376;28;20031;-72
2021/09/19 03:14:31;;;;;;;6.85;3.25;;;;;;;11.35;88.22;101608.91;5069418;28;20351;-72
2021/09/19 03:16:57;;;;;;;7.53;3.47;;;;;;;11.38;87.87;101609.47;5069468;28;20028;-72
2021/09/19 03:19:22;;;;;;;6.15;3.38;;;;;;;11.37;88.45;101615.78;5069900;28;20135;-72
2021/09/19 03:21:48;;;;;;;5.33;3.70;;;;;;;11.34;88.52;101616.09;5069485;28;20081;-72
2021/09/19 03:24:13;;;;;;;6.05;2.97;;;;;;;11.35;89.17;101620.44;5070001;28;20485;-72
2021/09/19 03:26:39;;;;;;;3.97;2.23;;;;;;;11.31;88.93;101619.06;5070215;28;20039;-71
2021/09/19 03:29:04;;;;;;;5.55;3.38;;;;;;;11.31;89.61;101619.06;5068752;28;20054;-72
2021/09/19 03:31:30;;;;;;;5.23;3.00;;;;;;;11.32;89.31;101614.56;5070106;28;20028;-72
2021/09/19 03:33:55;;;;;;;4.47;2.70;;;;;;;11.29;89.45;101613.03;5069891;28;20033;-72
2021/09/19 03:36:21;;;;;;;11.87;5.13;;;;;;;11.33;89.71;101611.75;5068818;28;20671;-72
2021/09/19 03:38:46;;;;;;;8.30;3.70;;;;;;;11.35;89.38;101609.75;5069552;28;20059;-72
2021/09/19 03:41:14;;;;;;;6.40;2.95;;;;;;;11.35;89.54;101623.13;5052432;28;20085;-72
2021/09/19 03:43:40;;;;;;;3.78;2.83;;;;;;;11.33;90.01;101619.78;5069748;28;20111;-71
2021/09/19 03:46:05;;;;;;;7.45;3.75;;;;;;;11.33;90.17;101627.78;5069717;28;20040;-72
2021/09/19 03:48:31;;;;;;;6.80;3.63;;;;;;;11.31;90.38;101629.75;5069230;28;20124;-72
2021/09/19 03:50:56;;;;;;;6.40;3.17;;;;;;;11.32;90.34;101628.75;5069702;28;20070;-72
2021/09/19 03:53:21;;;;;;;7.10;3.57;;;;;;;11.33;91.06;101621.56;5069124;28;20107;-72
2021/09/19 03:55:47;;;;;;;6.60;3.20;;;;;;;11.31;91.31;101627.09;5068500;28;20808;-72
2021/09/19 03:58:12;;;;;;;8.55;3.10;;;;;;;11.34;91.70;101624.13;5069504;28;20037;-72
2021/09/19 04:00:38;;;;;;;5.83;2.80;;;;;;;11.35;91.27;101620.44;5068175;28;20556;-72
2021/09/19 04:03:04;;;;;;;5.00;2.55;;;;;;;11.38;91.09;101619.34;5068479;28;20043;-72
2021/09/19 04:05:29;;;;;;;6.88;3.42;;;;;;;11.38;91.28;101617.50;5069105;28;20036;-72
2021/09/19 04:07:55;;;;;;;4.97;3.33;;;;;;;11.38;91.60;101624.69;5069350;28;20373;-72
2021/09/19 04:10:20;;;;;;;5.13;3.00;;;;;;;11.36;92.38;101632.84;5068859;28;20047;-72
2021/09/19 04:12:45;;;;;;;8.50;3.57;;;;;;;11.36;93.08;101629.31;5069395;28;20346;-72
2021/09/19 04:15:12;;;;;;;5.37;3.53;;;;;;;11.33;93.13;101633.13;5068089;28;20370;-72
2021/09/19 04:17:37;;;;;;;;;;;;;;;11.33;93.31;101632.28;5068552;28;20120;-72
2021/09/19 04:20:06;;;;;;;;;;;;;;;11.31;93.16;101629.75;5068275;28;20011;-72
2021/09/19 04:22:31;;;;;;;8.35;3.50;;;;;;;11.27;93.85;101639.06;5069212;28;19912;-72
2021/09/19 04:24:57;;;;;;;6.60;3.37;;;;;;;11.23;94.11;101632.31;5067927;28;20423;-72
2021/09/19 04:27:22;;;;;;;6.67;3.47;;;;;;;11.22;94.32;101635.16;5051376;28;20039;-72
2021/09/19 04:29:48;;;;;;;8.50;3.47;;;;;;;11.22;94.40;101632.47;5068610;28;20032;-71
2021/09/19 04:32:14;;;;;;;8.97;4.27;;;;;;;11.25;94.48;101643.69;5068869;28;20115;-72
2021/09/19 04:34:40;;;;;;;6.38;4.10;;;;;;;11.26;94.52;101631.16;5068685;28;20044;-72
2021/09/19 04:37:05;;;;;;;6.72;3.17;;;;;;;11.25;93.87;101641.03;5067766;28;20421;-72
2021/09/19 04:39:31;;;;;;;4.13;3.10;;;;;;;11.26;94.18;101637.38;5067578;28;20032;-72
2021/09/19 04:41:56;;;;;;;18.37;4.40;;;;;;;11.24;94.06;101626.00;5067591;28;20059;-72
2021/09/19 04:44:21;;;;;;;8.47;4.07;;;;;;;11.28;94.22;101639.88;5067601;28;20020;-72
2021/09/19 04:46:47;;;;;;;7.07;3.93;;;;;;;11.28;93.52;101619.34;5068197;28;20800;-72
2021/09/19 04:49:12;;;;;;;7.43;3.50;;;;;;;11.30;93.17;101616.53;5067555;28;20529;-72
2021/09/19 04:51:38;;;;;;;7.83;2.87;;;;;;;11.29;92.92;101623.72;5068461;28;20154;-72
2021/09/19 04:54:03;;;;;;;6.07;3.30;;;;;;;11.30;92.70;101620.03;5068478;28;20036;-72
2021/09/19 04:56:29;;;;;;;6.70;2.73;;;;;;;11.30;92.78;101611.19;5068361;28;20170;-72
2021/09/19 04:58:54;;;;;;;8.93;3.47;;;;;;;11.31;92.86;101608.38;5067214;28;20369;-72
2021/09/19 05:01:20;;;;;;;8.20;4.10;;;;;;;11.33;91.97;101617.09;5068376;28;20032;-71
2021/09/19 05:03:45;;;;;;;5.63;3.13;;;;;;;11.36;92.27;101606.09;5068365;28;20051;-72
2021/09/19 05:06:12;;;;;;;4.10;2.73;;;;;;;11.35;92.16;101609.75;5067371;28;20043;-72
2021/09/19 05:08:39;;;;;;;5.97;4.10;;;;;;;11.34;92.50;101615.25;5068203;28;20036;-72
2021/09/19 05:11:04;;;;;;;8.90;3.23;;;;;;;11.33;92.86;101622.44;5068122;28;20048;-72
2021/09/19 05:13:30;;;;;;;7.33;3.50;;;;;;;11.34;92.83;101617.94;5067535;28;20055;-72
2021/09/19 05:15:55;;;;;;;6.83;3.03;;;;;;;11.32;92.72;101614.56;5067908;28;20103;-72
2021/09/19 05:18:21;;;;;;;6.63;3.27;;;;;;;11.32;93.15;101620.75;5068284;28;20586;-72
2021/09/19 05:20:47;;;;;;;6.15;3.00;;;;;;;11.35;92.97;101620.44;5067234;28;20081;-72
2021/09/19 05:23:12;;;;;;;6.47;3.10;;;;;;;11.40;92.75;101628.03;5068145;28;20032;-72
2021/09/19 05:25:39;;;;;;;6.07;3.67;;;;;;;11.37;92.62;101623.81;5067161;28;20067;-72
2021/09/19 05:28:05;;;;;;;8.23;3.63;;;;;;;11.36;92.75;101629.31;5067035;28;20036;-72
2021/09/19 05:30:32;;;;;;;6.93;3.50;;;;;;;11.37;92.79;101637.19;5067720;28;20052;-72
2021/09/19 05:32:57;;;;;;;8.00;3.57;;;;;;;11.40;92.59;101631.56;5067092;28;20040;-72
2021/09/19 05:35:23;;;;;;;6.35;2.90;;;;;;;11.41;92.04;101624.38;5068090;28;20043;-72
2021/09/19 05:37:49;;;;;;;8.03;3.40;;;;;;;11.38;91.96;101619.34;5066862;28;20458;-72
2021/09/19 05:40:15;;;;;;;7.35;3.33;;;;;;;11.38;91.96;101624.69;5067906;28;20283;-72
2021/09/19 05:42:41;;;;;;;5.50;3.08;;;;;;;11.37;92.27;101629.16;5067973;28;20125;-72
2021/09/19 05:45:07;;;;;;;7.07;3.42;;;;;;;11.39;92.02;101632.53;5050127;28;20123;-72
2021/09/19 05:47:33;;;;;;;;;;;;;;;11.39;91.90;101621.00;5067211;28;20123;-72
2021/09/19 05:49:58;;;;;;;;;;;;;;;11.41;91.91;101624.38;5050563;28;20475;-72
2021/09/19 05:52:23;;;;;;;6.47;2.63;;;;;;;11.35;92.17;101625.78;5067780;28;19943;-72
2021/09/19 05:54:49;;;;;;;7.33;3.10;;;;;;;11.35;92.03;101631.13;5066969;28;20123;-72
2021/09/19 05:57:15;;;;;;;6.60;3.10;;;;;;;11.34;91.77;101624.13;5067792;28;20037;-72
2021/09/19 05:59:40;;;;;;;6.77;2.80;;;;;;;11.36;91.83;101637.34;5066578;28;20033;-72
2021/09/19 06:02:05;;;;;;;9.23;3.13;;;;;;;11.37;92.05;101639.84;5066957;28;20726;-72
2021/09/19 06:04:31;;;;;;;6.30;3.10;;;;;;;11.40;92.50;101644.94;5066751;28;20040;-72
2021/09/19 06:06:57;;;;;;;8.93;3.00;;;;;;;11.39;92.10;101650.41;5050111;28;20125;-72
2021/09/19 06:09:23;;;;;;;;;;;;;;;11.45;92.34;101652.53;5067835;28;20586;-72
2021/09/19 06:11:48;;;;;;;;;;;;;;;11.41;92.32;101651.94;5068285;28;19962;-72
2021/09/19 06:14:14;;;;;;;6.87;2.80;;;;;;;11.38;92.13;101635.38;5067492;28;20230;-72
2021/09/19 06:16:39;;;;;;;7.20;3.53;;;;;;;11.32;91.25;101642.13;5069377;28;20051;-72
2021/09/19 06:19:05;;;;;;;5.17;3.20;;;;;;;11.36;92.02;101642.69;5071140;28;20041;-72
2021/09/19 06:21:31;;;;;;;6.73;3.00;;;;;;;11.35;91.17;101641.81;5070643;28;20040;-72
2021/09/19 06:23:56;;;;;;;6.05;3.58;;;;;;;11.35;90.96;101636.47;5071180;28;20283;-72
2021/09/19 06:26:22;;;;;;;4.73;2.90;;;;;;;11.39;91.49;101635.22;5071264;28;20036;-72
2021/09/19 06:28:48;;;;;;;5.70;3.22;;;;;;;11.38;91.28;101641.56;5069737;28;20043;-71
2021/09/19 06:31:14;;;;;;;7.17;3.23;;;;;;;11.35;91.94;101646.34;5071309;28;20036;-72
2021/09/19 06:33:40;;;;;;;;;;;;;;;11.34;92.08;101634.81;5071581;28;20037;-72
2021/09/19 06:36:05;;;;;;;;;;;;;;;11.34;92.00;101640.16;5070547;28;20337;-72
2021/09/19 06:38:31;;;;;;;7.23;2.97;;;;;;;11.30;92.18;101637.91;5070838;28;19912;-72
2021/09/19 06:40:57;;;;;;;6.53;2.80;;;;;;;11.30;91.93;101638.75;5069975;28;20036;-71
2021/09/19 06:43:22;;;;;;;8.48;2.90;;;;;;;11.25;91.09;101619.63;5071047;28;20029;-71
2021/09/19 06:45:48;;;;;;;5.80;3.20;;;;;;;11.28;91.20;101619.34;5069661;28;20545;-72
2021/09/19 06:48:13;;;;;;;4.47;2.90;;;;;;;11.32;91.82;101628.75;5070859;28;20094;-72
2021/09/19 06:50:38;;;;;;;4.30;2.47;;;;;;;11.33;92.20;101638.47;5070516;28;20040;-72
2021/09/19 06:53:04;;;;;;;7.10;3.13;;;;;;;11.34;91.67;101631.31;5070856;28;20089;-72
2021/09/19 06:55:30;;;;;;;8.30;3.05;;;;;;;11.29;90.45;101621.03;5069473;28;20047;-72
2021/09/19 06:57:58;;;;;;;6.37;3.20;;;;;;;11.34;90.38;101624.13;5069749;28;20419;-72
2021/09/19 07:00:24;;;;;;;5.70;3.35;;;;;;;11.38;90.80;101614.81;5069401;28;20091;-72
2021/09/19 07:02:50;;;;;;;3.40;2.63;;;;;;;11.39;90.62;101619.16;5070708;28;20075;-72
2021/09/19 07:05:16;;;;;;;7.00;2.97;;;;;;;11.45;90.00;101615.09;5070446;28;20075;-72
2021/09/19 07:07:42;;;;;;;6.70;2.97;;;;;;;11.47;89.74;101607.75;5070483;28;20036;-72
2021/09/19 07:10:08;;;;;;;4.80;2.88;;;;;;;11.46;88.99;101607.91;5070174;28;20880;-72
2021/09/19 07:12:33;;;;;;;5.25;2.60;;;;;;;11.51;88.55;101605.63;5070508;28;20041;-72
2021/09/19 07:14:59;;;;;;;6.77;3.17;;;;;;;11.55;88.22;101615.03;5070182;28;20515;-72
2021/09/19 07:17:24;;;;;;;4.40;2.47;;;;;;;11.61;87.58;101609.06;5070418;28;20047;-72
2021/09/19 07:19:50;;;;;;;5.00;3.10;;;;;;;11.74;87.12;101612.25;5070116;28;20335;-72
2021/09/19 07:22:15;;;;;;;5.97;3.17;;;;;;;11.77;88.21;101609.28;5069323;28;20476;-72
2021/09/19 07:24:40;;;;;;;5.30;3.13;;;;;;;11.80;88.93;101614.34;5069330;28;20036;-72
2021/09/19 07:27:06;;;;;;;5.43;3.17;;;;;;;11.88;87.93;101604.75;5069294;28;20032;-72
2021/09/19 07:29:33;;;;;;;7.15;2.97;;;;;;;11.84;87.53;101599.66;5068206;28;20020;-72
2021/09/19 07:32:01;;;;;;;7.90;3.28;;;;;;;11.88;87.44;101605.59;5068602;28;20343;-72
2021/09/19 07:34:28;;;;;;;8.40;3.08;;;;;;;11.91;87.47;101607.13;5068645;28;20130;-72
2021/09/19 07:36:54;;;;;;;5.25;3.40;;;;;;;11.92;88.07;101611.50;5068569;28;20040;-72
2021/09/19 07:39:19;;;;;;;4.73;2.67;;;;;;;11.95;87.94;101606.69;5069527;28;20042;-72
2021/09/19 07:41:45;;;;;;;6.88;3.22;;;;;;;12.00;87.53;101615.09;5069635;28;20029;-72
2021/09/19 07:44:11;;;;;;;4.57;2.58;;;;;;;11.98;87.76;101617.06;5069852;28;20078;-72
2021/09/19 07:46:36;;;;;;;6.13;2.78;;;;;;;11.91;86.90;101613.31;5069618;28;20051;-72
2021/09/19 07:49:02;;;;;;;8.38;4.00;;;;;;;11.91;86.75;101612.47;5069545;28;20471;-71
2021/09/19 07:51:28;;;;;;;6.35;3.30;;;;;;;12.09;86.53;101613.34;5069749;28;20040;-71
2021/09/19 07:53:54;;;;;;;4.00;2.57;;;;;;;12.17;86.51;101621.44;5068820;28;20051;-72
2021/09/19 07:56:21;;;;;;;7.38;3.08;;;;;;;12.27;86.53;101610.69;5069225;28;20036;-72
2021/09/19 07:58:47;;;;;;;5.75;3.22;;;;;;;12.27;85.97;101602.66;5069489;28;20055;-72
2021/09/19 08:01:12;;;;;;;6.70;2.88;;;;;;;12.36;86.23;101609.78;5068686;28;20493;-72
2021/09/19 08:03:38;;;;;;;4.87;3.07;;;;;;;12.23;85.49;101602.13;5068160;28;20472;-72
2021/09/19 08:06:03;;;;;;;5.43;2.93;;;;;;;12.48;85.82;101613.06;5067163;28;20115;-72
2021/09/19 08:08:29;;;;;;;6.40;3.47;;;;;;;12.56;85.59;101621.16;5067724;28;20097;-72
2021/09/19 08:10:54;;;;;;;5.53;2.80;;;;;;;12.77;84.96;101607.44;5067590;28;20197;-72
2021/09/19 08:13:19;;;;;;;4.60;3.50;;;;;;;12.77;84.56;101602.06;5067653;28;20033;-72
2021/09/19 08:15:45;;;;;;;8.07;2.97;;;;;;;12.99;84.94;101603.38;5068550;28;20469;-72
2021/09/19 08:18:10;;;;;;;7.70;2.67;;;;;;;13.40;82.66;101608.19;5067769;28;20036;-72
2021/09/19 08:20:35;;;;;;;6.77;3.10;;;;;;;13.30;81.67;101608.31;5068123;28;20032;-72
2021/09/19 08:23:01;;;;;;;10.00;3.47;;;;;;;13.21;82.29;101615.44;5068325;28;20462;-72
2021/09/19 08:25:26;;;;;;;5.90;3.80;;;;;;;13.66;83.06;101627.75;5051482;28;20047;-72
2021/09/19 08:27:52;;;;;;;4.83;2.37;;;;;;;14.08;81.74;101618.00;5051399;28;20047;-72
2021/09/19 08:30:18;;;;;;;7.95;3.15;;;;;;;14.31;80.32;101613.69;5067869;28;20305;-72
2021/09/19 08:32:44;;;;;;;6.20;3.28;;;;;;;15.01;77.71;101609.69;5068020;28;20029;-72
2021/09/19 08:35:12;;;;;;;6.37;3.00;;;;;;;15.08;75.66;101599.94;5068922;28;20682;-72
2021/09/19 08:37:38;;;;;;;5.13;2.75;;;;;;;14.32;77.16;101604.63;5068851;28;20037;-72
2021/09/19 08:40:05;;;;;;;4.00;2.40;;;;;;;14.56;77.58;101621.78;5068750;28;20028;-72
2021/09/19 08:42:33;;;;;;;6.50;2.80;;;;;;;14.61;74.98;101600.66;5067839;28;20033;-72
2021/09/19 08:44:58;;;;;;;7.45;2.83;;;;;;;14.14;76.10;101595.84;5067889;28;20417;-72
2021/09/19 08:47:28;;;;;;;5.63;2.92;;;;;;;14.29;77.06;101615.69;5068815;28;20174;-72
2021/09/19 08:49:54;;;;;;;4.97;2.70;;;;;;;14.43;76.46;101610.69;5067463;28;20093;-72
2021/09/19 08:52:19;;;;;;;2.90;2.27;;;;;;;14.43;77.18;101616.88;5067789;28;20392;-72
2021/09/19 08:54:45;;;;;;;5.93;2.75;;;;;;;14.12;77.16;101620.22;5068529;28;20109;-72
2021/09/19 08:57:10;;;;;;;4.10;2.20;;;;;;;13.83;77.59;101617.94;5067829;28;20477;-72
2021/09/19 08:59:51;;;;;;;6.50;2.97;;;;;;;13.73;78.48;101625.28;5068498;28;20369;-72
2021/09/19 09:02:18;;;;;;;4.50;2.25;;;;;;;13.55;78.50;101616.47;5068709;28;20029;-72
2021/09/19 09:04:44;;;;;;;;;;;;;;;13.65;79.36;101627.91;5068637;28;20043;-72
2021/09/19 09:07:11;;;;;;;5.18;2.80;;;;;;;13.93;79.96;101632.06;5068638;28;20007;-72
2021/09/19 09:09:38;;;;;;;5.85;2.55;;;;;;;13.76;78.47;101624.13;5067402;28;20016;-72
2021/09/19 09:12:07;;;;;;;3.40;2.13;;;;;;;13.86;79.64;101630.19;5067567;28;20036;-72
2021/09/19 09:14:48;;;;;;;6.25;2.53;;;;;;;13.94;79.97;101639.09;5050769;28;20147;-72
2021/09/19 09:17:18;;;;;;;2.80;2.05;;;;;;;14.01;79.85;101644.66;5068507;28;20033;-72
2021/09/19 09:19:49;;;;;;;6.30;2.30;;;;;;;14.30;79.41;101644.22;5068211;28;20037;-72
2021/09/19 09:22:20;;;;;;;7.28;2.28;;;;;;;14.47;79.43;101641.56;5068669;28;20032;-72
2021/09/19 09:25:05;;;;;;;4.57;2.25;;;;;;;14.16;78.95;101639.50;5068278;28;20032;-72
2021/09/19 09:27:37;;;;;;;5.50;2.50;;;;;;;14.09;78.37;101633.97;5068430;28;20428;-73
2021/09/19 09:30:14;;;;;;;8.10;2.40;;;;;;;14.01;79.25;101633.09;5068253;28;20187;-72
2021/09/19 09:32:56;;;;;;;4.93;2.63;;;;;;;14.04;79.61;101638.97;5068438;28;20119;-72
2021/09/19 09:35:29;;;;;;;3.25;2.10;;;;;;;14.10;79.08;101642.84;5068200;28;20512;-72
2021/09/19 09:37:56;;;;;;;2.97;2.15;;;;;;;14.00;78.86;101639.47;5068342;28;20442;-72
2021/09/19 09:40:26;;;;;;;;;;;;;;;13.81;79.80;101643.25;5068605;28;20473;-72
2021/09/19 09:43:12;;;;;;;4.32;2.88;;;;;;;13.85;80.23;101655.34;5084328;28;19920;-72
2021/09/19 09:45:40;;;;;;;4.57;2.30;;;;;;;13.83;80.07;101642.09;5068145;28;20051;-72
2021/09/19 09:48:38;;;;;;;4.03;2.30;;;;;;;13.90;79.63;101648.47;5067967;28;20033;-72
2021/09/19 09:51:17;;;;;;;5.80;2.90;;;;;;;14.02;80.20;101645.50;5068022;28;20044;-72
2021/09/19 09:53:43;;;;;;;6.03;2.90;;;;;;;13.98;79.44;101646.81;5072341;28;20044;-73
2021/09/19 09:56:09;;;;;;;4.43;2.07;;;;;;;13.95;79.93;101645.31;5071901;28;20028;-72
2021/09/19 09:58:34;;;;;;;3.38;2.10;;;;;;;13.94;80.01;101638.28;5070891;28;20043;-72
2021/09/19 10:01:01;;;;;;;3.43;1.90;;;;;;;13.94;80.69;101639.09;5072079;28;20059;-72
2021/09/19 10:03:26;;;;;;;4.85;2.08;;;;;;;13.77;81.22;101647.28;5072042;28;20286;-72
2021/09/19 10:05:52;;;;;;;6.88;2.67;;;;;;;13.78;80.88;101644.41;5071202;28;20044;-72
2021/09/19 10:08:22;;;;;;;8.48;2.30;;;;;;;13.78;81.16;101649.78;5071880;28;20441;-72
2021/09/19 10:10:47;;;;;;;5.28;2.78;;;;;;;13.48;81.29;101646.63;5071653;28;20032;-72
2021/09/19 10:13:14;;;;;;;5.77;2.70;;;;;;;13.61;82.53;101648.03;5054330;28;20048;-72
2021/09/19 10:15:42;;;;;;;4.53;2.15;;;;;;;13.49;83.06;101661.72;5071671;28;20476;-72
2021/09/19 10:18:09;;;;;;;4.10;2.08;;;;;;;13.55;82.61;101654.03;5071583;28;20631;-72
2021/09/19 10:20:40;;;;;;;7.90;2.05;;;;;;;13.71;83.15;101659.47;5071292;28;20036;-72
2021/09/19 10:23:27;;;;;;;3.38;1.63;;;;;;;13.63;82.46;101656.78;5070570;28;20044;-72
2021/09/19 10:26:00;;;;;;;5.93;2.10;;;;;;;13.63;81.43;101646.88;5071310;28;20033;-72
2021/09/19 10:28:32;;;;;;;3.92;2.00;;;;;;;13.50;82.30;101647.31;5070349;28;20038;-72
2021/09/19 10:31:11;;;;;;;5.05;2.08;;;;;;;13.58;82.48;101656.38;5071262;28;20051;-72
2021/09/19 10:33:38;;;;;;;12.27;2.65;;;;;;;13.55;82.15;101657.56;5053797;28;20074;-72
2021/09/19 10:36:11;;;;;;;3.47;2.00;;;;;;;13.69;81.88;101648.06;5070103;28;20032;-72
2021/09/19 10:38:40;;;;;;;6.28;2.47;;;;;;;13.38;83.61;101659.31;5070240;28;20065;-72
2021/09/19 10:41:20;;;;;;;4.78;2.13;;;;;;;13.27;83.05;101655.06;5071249;28;20056;-72
2021/09/19 10:43:52;;;;;;;5.63;1.77;;;;;;;13.62;82.63;101644.34;5071142;28;20036;-72
2021/09/19 10:46:35;;;;;;;5.68;2.10;;;;;;;13.90;82.09;101640.44;5070889;28;20147;-72
2021/09/19 10:49:20;;;;;;;3.05;2.03;;;;;;;13.74;81.15;101632.31;5070838;28;20465;-72
2021/09/19 10:52:07;;;;;;;5.53;2.47;;;;;;;13.66;82.37;101643.88;5069875;28;20428;-72
2021/09/19 10:54:47;;;;;;;4.75;2.25;;;;;;;13.39;82.74;101639.56;5070818;28;20356;-72
2021/09/19 10:57:21;;;;;;;6.38;2.60;;;;;;;13.07;85.05;101651.72;5069663;28;20088;-72
2021/09/19 11:00:09;;;;;;;4.15;2.10;;;;;;;13.05;84.88;101645.66;5053021;28;20366;-72
2021/09/19 11:02:35;;;;;;;8.25;1.95;;;;;;;13.24;84.61;101641.94;5068265;28;20037;-72
2021/09/19 11:05:23;;;;;;;5.97;1.85;;;;;;;13.14;83.06;101637.69;5070430;28;20032;-72
2021/09/19 11:07:50;;;;;;;5.03;1.88;;;;;;;13.19;83.35;101640.75;5070475;28;20040;-72
2021/09/19 11:10:16;;;;;;;4.22;1.83;;;;;;;13.50;83.61;101641.94;5069467;28;20044;-72
2021/09/19 11:12:44;;;;;;;5.82;2.15;;;;;;;13.79;84.27;101643.44;5069580;28;20037;-72
2021/09/19 11:15:12;;;;;;;3.50;2.22;;;;;;;13.30;82.07;101627.09;5069489;28;20458;-72
2021/09/19 11:17:45;;;;;;;8.43;2.55;;;;;;;13.59;83.46;101640.16;5069416;28;20046;-72
2021/09/19 11:20:11;;;;;;;3.85;2.20;;;;;;;13.61;82.57;101629.25;5070307;28;20102;-72
2021/09/19 11:22:44;;;;;;;4.03;2.35;;;;;;;13.94;82.26;101628.38;5070267;28;20726;-72
2021/09/19 11:25:12;;;;;;;4.22;1.95;;;;;;;14.28;82.47;101632.84;5070304;28;20036;-72
2021/09/19 11:27:39;;;;;;;4.18;2.85;;;;;;;14.42;81.97;101625.09;5070160;28;20036;-72